Site contains unofficial IBTrACS data. Visit the IBTrACS Website to access archived data.

1880 Depression NOT_NAMED (1880214N20088)


IBTrACS version v04r00. Visit IBTrACS website for data access.
Please direct all questions to the IBTrACS Q and A forum

Storm track - Intensity - Wind Radii - Intensity Data - Source Data - All data

Summary Information

Storm ID 1880214N20088
Start Aug 1 00Z
Landfall Aug 3 15Z
Max Intensity 30 kt (Aug 1 03Z)
End Aug 9 03Z
ATCF IDs
Track status Best track data.

Storm track plot

Map of storm track

Intensity plots

Map of storm track

Radial wind information

No radial wind information for this storm


Position and Intensity Table

BASIN ISO_TIME_________ NATURE LAT LON DS824 WIND
degrees north degrees east kts
NI 1880-08-01 00:00:00 TS 20.10 88.30 30
NI 03:00:00 TS 20.10 88.30 30
NI 06:00:00 TS 20.10 88.30 30
NI 09:00:00 TS 20.10 88.29 30
NI 12:00:00 TS 20.10 88.29 30
NI 15:00:00 TS 20.10 88.30 30
NI 18:00:00 TS 20.09 88.31 30
NI 21:00:00 TS 20.08 88.33 30
NI 1880-08-02 00:00:00 TS 20.09 88.32 30
NI 03:00:00 TS 20.12 88.26 30
NI 06:00:00 TS 20.18 88.14 30
NI 09:00:00 TS 20.26 87.97 30
NI 12:00:00 TS 20.36 87.78 30
NI 15:00:00 TS 20.42 87.64 30
NI 18:00:00 TS 20.49 87.54 30
NI 21:00:00 TS 20.57 87.45 30
NI 1880-08-03 00:00:00 TS 20.66 87.35 30
NI 03:00:00 TS 20.72 87.25 30
NI 06:00:00 TS 20.79 87.14 30
NI 09:00:00 TS 20.88 87.00 30
NI 12:00:00 TS 20.96 86.86 30
NI 15:00:00 TS 21.02 86.74 30
NI 18:00:00 TS 21.09 86.66 30
NI 21:00:00 TS 21.17 86.61 30
NI 1880-08-04 00:00:00 TS 21.26 86.55 30
NI 03:00:00 TS 21.35 86.44 30
NI 06:00:00 TS 21.44 86.27 30
NI 09:00:00 TS 21.54 86.09 30
NI 12:00:00 TS 21.64 85.89 30
NI 15:00:00 TS 21.77 85.72 30
NI 18:00:00 TS 21.91 85.62 30
NI 21:00:00 TS 22.01 85.56 30
NI 1880-08-05 00:00:00 TS 22.13 85.36 30
NI 03:00:00 TS 22.30 84.87 30
NI 06:00:00 TS 22.47 84.17 30
NI 09:00:00 TS 22.61 83.43 30
NI 12:00:00 TS 22.73 82.63 30
NI 15:00:00 TS 22.85 81.80 30
NI 18:00:00 TS 22.97 80.95 30
NI 21:00:00 TS 23.12 80.06 30
NI 1880-08-06 00:00:00 TS 23.25 79.31 30
NI 03:00:00 TS 23.33 78.87 30
NI 06:00:00 TS 23.38 78.69 30
NI 09:00:00 TS 23.43 78.57 30
NI 12:00:00 TS 23.48 78.51 30
NI 15:00:00 TS 23.52 78.42 30
NI 18:00:00 TS 23.57 78.31 30
NI 21:00:00 TS 23.64 78.22 30
NI 1880-08-07 00:00:00 TS 23.74 78.09 30
NI 03:00:00 TS 23.89 77.84 30
NI 06:00:00 TS 24.09 77.51 30
NI 09:00:00 TS 24.32 77.16 30
NI 12:00:00 TS 24.57 76.79 30
NI 15:00:00 TS 24.82 76.42 30
NI 18:00:00 TS 25.08 76.07 30
NI 21:00:00 TS 25.37 75.74 30
NI 1880-08-08 00:00:00 TS 25.66 75.44 30
NI 03:00:00 TS 25.93 75.19 30
NI 06:00:00 TS 26.18 74.98 30
NI 09:00:00 TS 26.42 74.77 30
NI 12:00:00 TS 26.67 74.58 30
NI 15:00:00 TS 26.92 74.42 30
NI 18:00:00 TS 27.17 74.28 30
NI 21:00:00 TS 27.44 74.14 30
NI 1880-08-09 00:00:00 TS 27.71 74.00 30
NI 03:00:00 NR 27.90 73.90

Source Information

Agency Information
USA
TOKYO
CMA
HKO
NEWDELHI
REUNION
BOM
NADI
WELLINGTON
DS824 n_ind.dat:32:NOT NAMED
TD9636 cons_worldwide_trop_cyclone_18710101-19891231-004:Line=299
TD9635
NEUMANN
MLC

All available IBTrACS Data

SEASON BASIN SUBBASIN ISO_TIME_________ NATURE LAT LON DIST2LAND LANDFALL IFLAG USA SSHS DS824 LAT DS824 LON DS824 STAGE DS824 WIND TD9636 LAT TD9636 LON TD9636 STAGE STORM SPEED STORM DIR
Year degrees north degrees east km km 1 degrees north degrees east kts degrees north degrees east kts degrees
1880 NI BB 1880-08-01 00:00:00 TS 20.10 88.30 151 151 _________O____ -1 20.10 88.30 TC 30 0 0
1880 NI BB 03:00:00 TS 20.10 88.30 151 151 _________PO___ -1 20.10 88.30 TC 30 20.10 88.30 1 0 0
1880 NI BB 06:00:00 TS 20.10 88.30 151 151 _________OP___ -1 20.10 88.30 TC 30 20.10 88.29 1 0 0
1880 NI BB 09:00:00 TS 20.10 88.29 151 151 _________PP___ -1 20.10 88.30 TC 30 20.11 88.29 1 0 0
1880 NI BB 12:00:00 TS 20.10 88.29 151 151 _________OP___ -1 20.10 88.30 TC 30 20.11 88.29 1 0 0
1880 NI BB 15:00:00 TS 20.10 88.30 151 151 _________PO___ -1 20.10 88.30 TC 30 20.10 88.30 1 0 0
1880 NI BB 18:00:00 TS 20.09 88.31 151 151 _________OP___ -1 20.10 88.30 TC 30 20.09 88.32 1 0 112
1880 NI BB 21:00:00 TS 20.08 88.33 151 151 _________PP___ -1 20.09 88.31 TC 30 20.08 88.34 1 0 0
1880 NI BB 1880-08-02 00:00:00 TS 20.09 88.32 151 151 _________OP___ -1 20.10 88.30 TC 30 20.08 88.34 1 1 298
1880 NI BB 03:00:00 TS 20.12 88.26 151 136 _________PO___ -1 20.13 88.23 TC 30 20.10 88.30 1 2 297
1880 NI BB 06:00:00 TS 20.18 88.14 127 113 _________OP___ -1 20.20 88.10 TC 30 20.15 88.19 1 3 297
1880 NI BB 09:00:00 TS 20.26 87.97 113 89 _________PP___ -1 20.30 87.90 TC 30 20.23 88.03 1 4 298
1880 NI BB 12:00:00 TS 20.36 87.78 89 70 _________OP___ -1 20.40 87.70 TC 30 20.31 87.86 1 3 298
1880 NI BB 15:00:00 TS 20.42 87.64 70 56 _________PO___ -1 20.45 87.58 TC 30 20.40 87.70 1 3 301
1880 NI BB 18:00:00 TS 20.49 87.54 56 53 _________OP___ -1 20.50 87.50 TC 30 20.47 87.59 1 2 309
1880 NI BB 21:00:00 TS 20.57 87.45 43 41 _________PP___ -1 20.60 87.40 TC 30 20.55 87.49 1 3 314
1880 NI BB 1880-08-03 00:00:00 TS 20.66 87.35 31 31 _________OP___ -1 20.70 87.30 TC 30 20.62 87.40 1 2 310
1880 NI BB 03:00:00 TS 20.72 87.25 31 10 _________PO___ -1 20.75 87.21 TC 30 20.70 87.30 1 2 302
1880 NI BB 06:00:00 TS 20.79 87.14 10 0 _________OP___ -1 20.80 87.10 TC 30 20.78 87.17 1 3 302
1880 NI BB 09:00:00 TS 20.88 87.00 10 0 _________PP___ -1 20.90 86.95 TC 30 20.85 87.04 1 3 304
1880 NI BB 12:00:00 TS 20.96 86.86 10 0 _________OP___ -1 21.00 86.80 TC 30 20.93 86.91 1 3 302
1880 NI BB 15:00:00 TS 21.02 86.74 0 0 _________PO___ -1 21.05 86.68 TC 30 21.00 86.80 1 2 304
1880 NI BB 18:00:00 TS 21.09 86.66 0 0 _________OP___ -1 21.10 86.60 TC 30 21.07 86.73 1 2 319
1880 NI BB 21:00:00 TS 21.17 86.61 0 0 _________PP___ -1 21.19 86.56 TC 30 21.14 86.66 1 2 329
1880 NI BB 1880-08-04 00:00:00 TS 21.26 86.55 0 0 _________OP___ -1 21.30 86.50 TC 30 21.22 86.60 1 2 318
1880 NI BB 03:00:00 TS 21.35 86.44 0 0 _________PO___ -1 21.40 86.37 TC 30 21.30 86.50 1 3 306
1880 NI BB 06:00:00 TS 21.44 86.27 0 0 _________OP___ -1 21.50 86.20 TC 30 21.39 86.35 1 4 300
1880 NI BB 09:00:00 TS 21.54 86.09 0 0 _________PP___ -1 21.59 86.00 TC 30 21.49 86.17 1 4 299
1880 NI BB 12:00:00 TS 21.64 85.89 0 0 _________OP___ -1 21.70 85.80 TC 30 21.59 85.98 1 4 305
1880 NI BB 15:00:00 TS 21.77 85.72 0 0 _________PO___ -1 21.85 85.64 TC 30 21.70 85.80 1 4 316
1880 NI BB 18:00:00 TS 21.91 85.62 0 0 _________OP___ -1 22.00 85.50 TC 30 21.81 85.74 1 3 327
1880 NI BB 21:00:00 TS 22.01 85.56 0 0 _________PP___ -1 22.09 85.44 TC 30 21.93 85.67 1 3 313
1880 NI BB 1880-08-05 00:00:00 TS 22.13 85.36 0 0 _________OP___ -1 22.20 85.20 TC 30 22.06 85.52 1 7 294
1880 NI BB 03:00:00 TS 22.30 84.87 0 0 _________PO___ -1 22.40 84.54 TC 30 22.20 85.20 1 12 287
1880 NI BB 06:00:00 TS 22.47 84.17 0 0 _________OP___ -1 22.60 83.70 TC 30 22.35 84.63 1 14 283
1880 NI BB 09:00:00 TS 22.61 83.43 0 0 _________PP___ -1 22.71 82.96 TC 30 22.50 83.90 1 14 280
1880 NI BB 12:00:00 TS 22.73 82.63 0 0 _________OP___ -1 22.80 82.20 TC 30 22.65 83.06 1 15 279
1880 NI BB 15:00:00 TS 22.85 81.80 0 0 _________PO___ -1 22.89 81.41 TC 30 22.80 82.20 1 16 279
1880 NI BB 18:00:00 TS 22.97 80.95 0 0 _________OP___ -1 23.00 80.60 TC 30 22.95 81.31 1 16 280
1880 NI BB 21:00:00 TS 23.12 80.06 0 0 _________PP___ -1 23.16 79.70 TC 30 23.08 80.41 1 15 280
1880 NI BB 1880-08-06 00:00:00 TS 23.25 79.31 0 0 _________OP___ -1 23.30 79.00 TC 30 23.20 79.61 1 11 281
1880 NI BB 03:00:00 TS 23.33 78.87 0 0 _________PO___ -1 23.36 78.74 TC 30 23.30 79.00 1 6 283
1880 NI BB 06:00:00 TS 23.38 78.69 0 0 _________OP___ -1 23.40 78.70 TC 30 23.36 78.68 1 3 290
1880 NI BB 09:00:00 TS 23.43 78.57 0 0 _________PP___ -1 23.45 78.60 TC 30 23.41 78.55 1 2 299
1880 NI BB 12:00:00 TS 23.48 78.51 0 0 _________OP___ -1 23.50 78.50 TC 30 23.45 78.51 1 2 304
1880 NI BB 15:00:00 TS 23.52 78.42 0 0 _________PO___ -1 23.54 78.35 TC 30 23.50 78.50 1 2 297
1880 NI BB 18:00:00 TS 23.57 78.31 0 0 _________OP___ -1 23.60 78.20 TC 30 23.54 78.41 1 2 302
1880 NI BB 21:00:00 TS 23.64 78.22 0 0 _________PP___ -1 23.68 78.13 TC 30 23.60 78.32 1 3 311
1880 NI BB 1880-08-07 00:00:00 TS 23.74 78.09 0 0 _________OP___ -1 23.80 78.00 TC 30 23.68 78.19 1 4 306
1880 NI AS 03:00:00 TS 23.89 77.84 0 0 _________PO___ -1 23.98 77.69 TC 30 23.80 78.00 1 6 303
1880 NI AS 06:00:00 TS 24.09 77.51 0 0 _________OP___ -1 24.20 77.30 TC 30 23.97 77.71 1 8 304
1880 NI AS 09:00:00 TS 24.32 77.16 0 0 _________PP___ -1 24.44 76.95 TC 30 24.19 77.36 1 8 306
1880 NI AS 12:00:00 TS 24.57 76.79 0 0 _________OP___ -1 24.70 76.60 TC 30 24.44 76.98 1 8 307
1880 NI AS 15:00:00 TS 24.82 76.42 0 0 _________PO___ -1 24.94 76.24 TC 30 24.70 76.60 1 8 308
1880 NI AS 18:00:00 TS 25.08 76.07 0 0 _________OP___ -1 25.20 75.90 TC 30 24.96 76.25 1 8 312
1880 NI AS 21:00:00 TS 25.37 75.74 0 0 _________PP___ -1 25.50 75.58 TC 30 25.24 75.91 1 8 315
1880 NI AS 1880-08-08 00:00:00 TS 25.66 75.44 0 0 _________OP___ -1 25.80 75.30 TC 30 25.52 75.59 1 7 318
1880 NI AS 03:00:00 TS 25.93 75.19 0 0 _________PO___ -1 26.06 75.08 TC 30 25.80 75.30 1 7 321
1880 NI AS 06:00:00 TS 26.18 74.98 0 0 _________OP___ -1 26.30 74.90 TC 30 26.05 75.06 1 6 323
1880 NI AS 09:00:00 TS 26.42 74.77 0 0 _________PP___ -1 26.55 74.69 TC 30 26.30 74.85 1 6 325
1880 NI AS 12:00:00 TS 26.67 74.58 0 0 _________OP___ -1 26.80 74.50 TC 30 26.55 74.66 1 6 328
1880 NI AS 15:00:00 TS 26.92 74.42 0 0 _________PO___ -1 27.04 74.34 TC 30 26.80 74.50 1 6 331
1880 NI AS 18:00:00 TS 27.17 74.28 0 0 _________OP___ -1 27.30 74.20 TC 30 27.06 74.34 1 6 334
1880 NI AS 21:00:00 TS 27.44 74.14 0 0 _________PP___ -1 27.59 74.05 TC 30 27.34 74.19 1 6 335
1880 NI AS 1880-08-09 00:00:00 TS 27.71 74.00 0 0 _________OP___ -1 27.90 73.90 TC 30 27.62 74.05 1 5 336
1880 NI AS 03:00:00 NR 27.90 73.90 0 __________O___ -1 TC 27.90 73.90 1 4 334